sensor_id;sensor_type;location;lat;lon;timestamp;P1;durP1;ratioP1;P2;durP2;ratioP2
13475;SDS011;6810;63.824;20.288;2022-07-05T00:02:38;3.23;;;2.60;;
13475;SDS011;6810;63.824;20.288;2022-07-05T00:05:25;3.67;;;2.50;;
13475;SDS011;6810;63.824;20.288;2022-07-05T00:08:12;3.50;;;2.20;;
13475;SDS011;6810;63.824;20.288;2022-07-05T00:11:00;2.40;;;2.20;;
13475;SDS011;6810;63.824;20.288;2022-07-05T00:13:47;3.53;;;2.23;;
13475;SDS011;6810;63.824;20.288;2022-07-05T00:16:34;3.80;;;2.60;;
13475;SDS011;6810;63.824;20.288;2022-07-05T00:19:21;3.17;;;2.50;;
13475;SDS011;6810;63.824;20.288;2022-07-05T00:22:08;4.20;;;2.30;;
13475;SDS011;6810;63.824;20.288;2022-07-05T00:24:56;2.37;;;2.20;;
13475;SDS011;6810;63.824;20.288;2022-07-05T00:27:43;3.30;;;2.40;;
13475;SDS011;6810;63.824;20.288;2022-07-05T00:30:30;2.67;;;2.30;;
13475;SDS011;6810;63.824;20.288;2022-07-05T00:33:17;3.60;;;2.20;;
13475;SDS011;6810;63.824;20.288;2022-07-05T00:36:04;3.63;;;2.17;;
13475;SDS011;6810;63.824;20.288;2022-07-05T00:38:54;2.80;;;2.43;;
13475;SDS011;6810;63.824;20.288;2022-07-05T00:41:41;2.67;;;2.20;;
13475;SDS011;6810;63.824;20.288;2022-07-05T00:44:29;3.20;;;2.63;;
13475;SDS011;6810;63.824;20.288;2022-07-05T00:47:20;3.57;;;2.40;;
13475;SDS011;6810;63.824;20.288;2022-07-05T00:50:07;2.87;;;2.60;;
13475;SDS011;6810;63.824;20.288;2022-07-05T00:52:55;3.63;;;2.50;;
13475;SDS011;6810;63.824;20.288;2022-07-05T00:55:43;3.30;;;2.60;;
13475;SDS011;6810;63.824;20.288;2022-07-05T00:58:31;3.07;;;2.30;;
13475;SDS011;6810;63.824;20.288;2022-07-05T01:01:19;2.47;;;2.23;;
13475;SDS011;6810;63.824;20.288;2022-07-05T01:04:06;4.60;;;2.40;;
13475;SDS011;6810;63.824;20.288;2022-07-05T01:06:53;3.37;;;2.53;;
13475;SDS011;6810;63.824;20.288;2022-07-05T01:09:41;4.53;;;2.70;;
13475;SDS011;6810;63.824;20.288;2022-07-05T01:12:28;2.80;;;2.40;;
13475;SDS011;6810;63.824;20.288;2022-07-05T01:15:15;3.03;;;2.47;;
13475;SDS011;6810;63.824;20.288;2022-07-05T01:18:04;2.63;;;2.37;;
13475;SDS011;6810;63.824;20.288;2022-07-05T01:20:52;3.03;;;2.40;;
13475;SDS011;6810;63.824;20.288;2022-07-05T01:23:39;2.70;;;2.50;;
13475;SDS011;6810;63.824;20.288;2022-07-05T01:26:27;5.27;;;2.77;;
13475;SDS011;6810;63.824;20.288;2022-07-05T01:29:15;2.80;;;2.53;;
13475;SDS011;6810;63.824;20.288;2022-07-05T01:32:03;3.63;;;2.63;;
13475;SDS011;6810;63.824;20.288;2022-07-05T01:34:50;2.67;;;2.47;;
13475;SDS011;6810;63.824;20.288;2022-07-05T01:37:37;4.53;;;2.87;;
13475;SDS011;6810;63.824;20.288;2022-07-05T01:40:25;2.53;;;2.33;;
13475;SDS011;6810;63.824;20.288;2022-07-05T01:43:12;3.27;;;2.60;;
13475;SDS011;6810;63.824;20.288;2022-07-05T01:45:59;4.57;;;2.63;;
13475;SDS011;6810;63.824;20.288;2022-07-05T01:48:49;4.10;;;2.47;;
13475;SDS011;6810;63.824;20.288;2022-07-05T01:51:41;3.47;;;2.40;;
13475;SDS011;6810;63.824;20.288;2022-07-05T01:54:42;2.80;;;2.33;;
13475;SDS011;6810;63.824;20.288;2022-07-05T01:57:29;3.47;;;2.60;;
13475;SDS011;6810;63.824;20.288;2022-07-05T02:00:16;3.07;;;2.60;;
13475;SDS011;6810;63.824;20.288;2022-07-05T02:03:03;4.87;;;3.10;;
13475;SDS011;6810;63.824;20.288;2022-07-05T02:06:10;2.93;;;2.50;;
13475;SDS011;6810;63.824;20.288;2022-07-05T02:09:00;3.37;;;2.60;;
13475;SDS011;6810;63.824;20.288;2022-07-05T02:11:48;5.07;;;3.13;;
13475;SDS011;6810;63.824;20.288;2022-07-05T02:14:35;3.80;;;2.77;;
13475;SDS011;6810;63.824;20.288;2022-07-05T02:17:22;3.17;;;2.87;;
13475;SDS011;6810;63.824;20.288;2022-07-05T02:20:09;3.00;;;2.70;;
13475;SDS011;6810;63.824;20.288;2022-07-05T02:22:38;2.93;;;2.63;;
13475;SDS011;6810;63.824;20.288;2022-07-05T02:25:05;3.40;;;2.40;;
13475;SDS011;6810;63.824;20.288;2022-07-05T02:27:55;4.10;;;2.97;;
13475;SDS011;6810;63.824;20.288;2022-07-05T02:30:46;3.03;;;2.73;;
13475;SDS011;6810;63.824;20.288;2022-07-05T02:33:33;4.23;;;3.30;;
13475;SDS011;6810;63.824;20.288;2022-07-05T02:36:22;3.90;;;2.70;;
13475;SDS011;6810;63.824;20.288;2022-07-05T02:39:11;3.10;;;2.90;;
13475;SDS011;6810;63.824;20.288;2022-07-05T02:42:00;3.07;;;2.77;;
13475;SDS011;6810;63.824;20.288;2022-07-05T02:44:46;6.40;;;3.13;;
13475;SDS011;6810;63.824;20.288;2022-07-05T02:47:34;2.77;;;2.47;;
13475;SDS011;6810;63.824;20.288;2022-07-05T02:50:21;3.50;;;2.80;;
13475;SDS011;6810;63.824;20.288;2022-07-05T02:53:09;3.27;;;2.90;;
13475;SDS011;6810;63.824;20.288;2022-07-05T02:55:56;2.90;;;2.60;;
13475;SDS011;6810;63.824;20.288;2022-07-05T02:58:44;2.97;;;2.77;;
13475;SDS011;6810;63.824;20.288;2022-07-05T03:01:34;3.67;;;3.07;;
13475;SDS011;6810;63.824;20.288;2022-07-05T03:04:21;2.70;;;2.50;;
13475;SDS011;6810;63.824;20.288;2022-07-05T03:07:09;2.93;;;2.73;;
13475;SDS011;6810;63.824;20.288;2022-07-05T03:09:56;3.20;;;2.90;;
13475;SDS011;6810;63.824;20.288;2022-07-05T03:12:43;3.47;;;2.60;;
13475;SDS011;6810;63.824;20.288;2022-07-05T03:15:30;3.43;;;2.60;;
13475;SDS011;6810;63.824;20.288;2022-07-05T03:18:21;3.53;;;2.80;;
13475;SDS011;6810;63.824;20.288;2022-07-05T03:21:08;4.33;;;2.60;;
13475;SDS011;6810;63.824;20.288;2022-07-05T03:23:55;4.57;;;3.10;;
13475;SDS011;6810;63.824;20.288;2022-07-05T03:26:42;3.80;;;2.90;;
13475;SDS011;6810;63.824;20.288;2022-07-05T03:29:30;3.40;;;2.90;;
13475;SDS011;6810;63.824;20.288;2022-07-05T03:32:17;2.90;;;2.60;;
13475;SDS011;6810;63.824;20.288;2022-07-05T03:35:06;3.67;;;2.70;;
13475;SDS011;6810;63.824;20.288;2022-07-05T03:37:54;3.97;;;2.43;;
13475;SDS011;6810;63.824;20.288;2022-07-05T03:40:42;4.23;;;2.90;;
13475;SDS011;6810;63.824;20.288;2022-07-05T03:43:29;3.93;;;2.73;;
13475;SDS011;6810;63.824;20.288;2022-07-05T03:46:17;3.50;;;2.70;;
13475;SDS011;6810;63.824;20.288;2022-07-05T03:49:04;3.73;;;2.70;;
13475;SDS011;6810;63.824;20.288;2022-07-05T03:51:51;4.77;;;2.77;;
13475;SDS011;6810;63.824;20.288;2022-07-05T03:54:38;3.30;;;2.67;;
13475;SDS011;6810;63.824;20.288;2022-07-05T03:57:26;4.20;;;2.63;;
13475;SDS011;6810;63.824;20.288;2022-07-05T04:00:14;3.00;;;2.70;;
13475;SDS011;6810;63.824;20.288;2022-07-05T04:03:06;3.00;;;2.47;;
13475;SDS011;6810;63.824;20.288;2022-07-05T04:05:54;2.97;;;2.77;;
13475;SDS011;6810;63.824;20.288;2022-07-05T04:08:41;3.67;;;2.83;;
13475;SDS011;6810;63.824;20.288;2022-07-05T04:11:28;4.57;;;2.70;;
13475;SDS011;6810;63.824;20.288;2022-07-05T04:14:16;3.67;;;2.43;;
13475;SDS011;6810;63.824;20.288;2022-07-05T04:17:03;7.23;;;2.83;;
13475;SDS011;6810;63.824;20.288;2022-07-05T04:19:50;5.03;;;2.43;;
13475;SDS011;6810;63.824;20.288;2022-07-05T04:22:41;2.90;;;2.70;;
13475;SDS011;6810;63.824;20.288;2022-07-05T04:25:29;4.23;;;3.13;;
13475;SDS011;6810;63.824;20.288;2022-07-05T04:28:26;3.67;;;2.57;;
13475;SDS011;6810;63.824;20.288;2022-07-05T04:31:20;5.07;;;2.30;;
13475;SDS011;6810;63.824;20.288;2022-07-05T04:34:07;4.33;;;2.60;;
13475;SDS011;6810;63.824;20.288;2022-07-05T04:36:55;3.03;;;2.23;;
13475;SDS011;6810;63.824;20.288;2022-07-05T04:39:42;3.53;;;2.80;;
13475;SDS011;6810;63.824;20.288;2022-07-05T04:42:30;2.83;;;2.07;;
13475;SDS011;6810;63.824;20.288;2022-07-05T04:45:18;3.50;;;2.30;;
13475;SDS011;6810;63.824;20.288;2022-07-05T04:48:06;3.67;;;2.40;;
13475;SDS011;6810;63.824;20.288;2022-07-05T04:50:53;3.57;;;2.03;;
13475;SDS011;6810;63.824;20.288;2022-07-05T04:53:41;3.73;;;2.33;;
13475;SDS011;6810;63.824;20.288;2022-07-05T04:56:29;3.03;;;2.30;;
13475;SDS011;6810;63.824;20.288;2022-07-05T04:59:16;3.10;;;2.20;;
13475;SDS011;6810;63.824;20.288;2022-07-05T05:02:03;2.90;;;1.90;;
13475;SDS011;6810;63.824;20.288;2022-07-05T05:04:50;2.83;;;2.00;;
13475;SDS011;6810;63.824;20.288;2022-07-05T05:07:41;2.93;;;2.27;;
13475;SDS011;6810;63.824;20.288;2022-07-05T05:10:29;2.37;;;1.80;;
13475;SDS011;6810;63.824;20.288;2022-07-05T05:13:16;4.53;;;1.80;;
13475;SDS011;6810;63.824;20.288;2022-07-05T05:16:03;2.80;;;1.80;;
13475;SDS011;6810;63.824;20.288;2022-07-05T05:18:50;3.23;;;1.60;;
13475;SDS011;6810;63.824;20.288;2022-07-05T05:21:37;2.73;;;2.00;;
13475;SDS011;6810;63.824;20.288;2022-07-05T05:24:24;1.63;;;1.43;;
13475;SDS011;6810;63.824;20.288;2022-07-05T05:27:11;2.50;;;1.43;;
13475;SDS011;6810;63.824;20.288;2022-07-05T05:29:58;2.13;;;1.50;;
13475;SDS011;6810;63.824;20.288;2022-07-05T05:32:45;1.33;;;1.13;;
13475;SDS011;6810;63.824;20.288;2022-07-05T05:35:32;1.83;;;1.10;;
13475;SDS011;6810;63.824;20.288;2022-07-05T05:38:19;2.20;;;1.10;;
13475;SDS011;6810;63.824;20.288;2022-07-05T05:41:06;1.93;;;1.00;;
13475;SDS011;6810;63.824;20.288;2022-07-05T05:43:54;1.63;;;1.20;;
13475;SDS011;6810;63.824;20.288;2022-07-05T05:46:41;1.20;;;1.10;;
13475;SDS011;6810;63.824;20.288;2022-07-05T05:49:28;1.23;;;0.80;;
13475;SDS011;6810;63.824;20.288;2022-07-05T05:52:15;1.33;;;0.97;;
13475;SDS011;6810;63.824;20.288;2022-07-05T05:55:02;1.33;;;0.90;;
13475;SDS011;6810;63.824;20.288;2022-07-05T05:57:50;0.90;;;0.80;;
13475;SDS011;6810;63.824;20.288;2022-07-05T06:00:37;1.50;;;0.90;;
13475;SDS011;6810;63.824;20.288;2022-07-05T06:03:25;1.00;;;0.90;;
13475;SDS011;6810;63.824;20.288;2022-07-05T06:06:01;2.20;;;1.00;;
13475;SDS011;6810;63.824;20.288;2022-07-05T06:08:28;1.17;;;0.90;;
13475;SDS011;6810;63.824;20.288;2022-07-05T06:11:15;1.30;;;1.00;;
13475;SDS011;6810;63.824;20.288;2022-07-05T06:14:02;1.73;;;0.87;;
13475;SDS011;6810;63.824;20.288;2022-07-05T06:16:29;0.90;;;0.90;;
13475;SDS011;6810;63.824;20.288;2022-07-05T06:18:56;1.03;;;0.80;;
13475;SDS011;6810;63.824;20.288;2022-07-05T06:21:43;1.87;;;0.80;;
13475;SDS011;6810;63.824;20.288;2022-07-05T06:24:30;0.67;;;0.63;;
13475;SDS011;6810;63.824;20.288;2022-07-05T06:27:41;2.07;;;0.70;;
13475;SDS011;6810;63.824;20.288;2022-07-05T06:30:13;1.23;;;1.00;;
13475;SDS011;6810;63.824;20.288;2022-07-05T06:32:44;1.00;;;1.00;;
13475;SDS011;6810;63.824;20.288;2022-07-05T06:35:13;1.57;;;0.80;;
13475;SDS011;6810;63.824;20.288;2022-07-05T06:37:44;1.03;;;0.77;;
13475;SDS011;6810;63.824;20.288;2022-07-05T06:40:39;2.23;;;0.80;;
13475;SDS011;6810;63.824;20.288;2022-07-05T06:43:31;2.23;;;0.50;;
13475;SDS011;6810;63.824;20.288;2022-07-05T06:46:01;1.83;;;0.80;;
13475;SDS011;6810;63.824;20.288;2022-07-05T06:48:29;3.07;;;0.70;;
13475;SDS011;6810;63.824;20.288;2022-07-05T06:50:56;1.60;;;0.67;;
13475;SDS011;6810;63.824;20.288;2022-07-05T06:53:43;2.57;;;1.00;;
13475;SDS011;6810;63.824;20.288;2022-07-05T06:56:32;2.30;;;0.70;;
13475;SDS011;6810;63.824;20.288;2022-07-05T06:59:39;1.67;;;0.70;;
13475;SDS011;6810;63.824;20.288;2022-07-05T07:02:27;2.20;;;1.13;;
13475;SDS011;6810;63.824;20.288;2022-07-05T07:05:15;1.53;;;0.70;;
13475;SDS011;6810;63.824;20.288;2022-07-05T07:08:22;1.50;;;0.80;;
13475;SDS011;6810;63.824;20.288;2022-07-05T07:11:07;0.93;;;0.90;;
13475;SDS011;6810;63.824;20.288;2022-07-05T07:13:54;1.00;;;0.60;;
13475;SDS011;6810;63.824;20.288;2022-07-05T07:16:41;3.40;;;1.10;;
13475;SDS011;6810;63.824;20.288;2022-07-05T07:19:29;3.17;;;0.90;;
13475;SDS011;6810;63.824;20.288;2022-07-05T07:22:16;1.03;;;1.00;;
13475;SDS011;6810;63.824;20.288;2022-07-05T07:25:04;2.37;;;1.00;;
13475;SDS011;6810;63.824;20.288;2022-07-05T07:27:52;1.50;;;0.80;;
13475;SDS011;6810;63.824;20.288;2022-07-05T07:30:40;1.70;;;0.80;;
13475;SDS011;6810;63.824;20.288;2022-07-05T07:33:27;1.67;;;0.90;;
13475;SDS011;6810;63.824;20.288;2022-07-05T07:36:14;2.00;;;0.90;;
13475;SDS011;6810;63.824;20.288;2022-07-05T07:39:01;1.53;;;0.97;;
13475;SDS011;6810;63.824;20.288;2022-07-05T07:41:47;2.63;;;1.20;;
13475;SDS011;6810;63.824;20.288;2022-07-05T07:44:34;1.63;;;0.83;;
13475;SDS011;6810;63.824;20.288;2022-07-05T07:47:21;0.80;;;0.80;;
13475;SDS011;6810;63.824;20.288;2022-07-05T07:49:49;1.23;;;0.60;;
13475;SDS011;6810;63.824;20.288;2022-07-05T07:52:36;1.93;;;0.70;;
13475;SDS011;6810;63.824;20.288;2022-07-05T07:55:23;3.90;;;1.10;;
13475;SDS011;6810;63.824;20.288;2022-07-05T07:58:14;1.60;;;0.87;;
13475;SDS011;6810;63.824;20.288;2022-07-05T08:01:01;1.63;;;0.90;;
13475;SDS011;6810;63.824;20.288;2022-07-05T08:03:48;0.70;;;0.70;;
13475;SDS011;6810;63.824;20.288;2022-07-05T08:06:35;0.73;;;0.70;;
13475;SDS011;6810;63.824;20.288;2022-07-05T08:09:22;0.80;;;0.73;;
13475;SDS011;6810;63.824;20.288;2022-07-05T08:12:10;1.13;;;0.70;;
13475;SDS011;6810;63.824;20.288;2022-07-05T08:14:57;2.57;;;0.70;;
13475;SDS011;6810;63.824;20.288;2022-07-05T08:17:44;3.67;;;0.93;;
13475;SDS011;6810;63.824;20.288;2022-07-05T08:20:31;2.77;;;0.80;;
13475;SDS011;6810;63.824;20.288;2022-07-05T08:23:17;4.40;;;0.80;;
13475;SDS011;6810;63.824;20.288;2022-07-05T08:26:03;1.50;;;0.93;;
13475;SDS011;6810;63.824;20.288;2022-07-05T08:28:51;2.43;;;0.87;;
13475;SDS011;6810;63.824;20.288;2022-07-05T08:31:48;1.00;;;0.70;;
13475;SDS011;6810;63.824;20.288;2022-07-05T08:34:36;3.40;;;1.00;;
13475;SDS011;6810;63.824;20.288;2022-07-05T08:37:24;2.80;;;0.80;;
13475;SDS011;6810;63.824;20.288;2022-07-05T08:40:11;2.70;;;0.90;;
13475;SDS011;6810;63.824;20.288;2022-07-05T08:43:01;3.37;;;1.10;;
13475;SDS011;6810;63.824;20.288;2022-07-05T08:45:49;1.73;;;0.70;;
13475;SDS011;6810;63.824;20.288;2022-07-05T08:48:37;2.10;;;0.90;;
13475;SDS011;6810;63.824;20.288;2022-07-05T08:51:38;4.90;;;0.77;;
13475;SDS011;6810;63.824;20.288;2022-07-05T08:54:10;2.13;;;1.00;;
13475;SDS011;6810;63.824;20.288;2022-07-05T08:56:45;1.37;;;0.70;;
13475;SDS011;6810;63.824;20.288;2022-07-05T08:59:33;1.57;;;0.90;;
13475;SDS011;6810;63.824;20.288;2022-07-05T09:02:20;0.93;;;0.60;;
13475;SDS011;6810;63.824;20.288;2022-07-05T09:04:47;2.33;;;0.80;;
13475;SDS011;6810;63.824;20.288;2022-07-05T09:07:17;2.00;;;1.00;;
13475;SDS011;6810;63.824;20.288;2022-07-05T09:09:47;2.27;;;0.90;;
13475;SDS011;6810;63.824;20.288;2022-07-05T09:12:17;2.47;;;0.80;;
13475;SDS011;6810;63.824;20.288;2022-07-05T09:14:49;3.53;;;0.87;;
13475;SDS011;6810;63.824;20.288;2022-07-05T09:17:17;1.47;;;0.90;;
13475;SDS011;6810;63.824;20.288;2022-07-05T09:19:46;5.00;;;0.93;;
13475;SDS011;6810;63.824;20.288;2022-07-05T09:22:41;1.20;;;0.70;;
13475;SDS011;6810;63.824;20.288;2022-07-05T09:25:18;1.37;;;0.70;;
13475;SDS011;6810;63.824;20.288;2022-07-05T09:27:57;1.13;;;0.90;;
13475;SDS011;6810;63.824;20.288;2022-07-05T09:30:30;1.27;;;0.80;;
13475;SDS011;6810;63.824;20.288;2022-07-05T09:33:17;1.67;;;0.97;;
13475;SDS011;6810;63.824;20.288;2022-07-05T09:35:52;4.40;;;0.90;;
13475;SDS011;6810;63.824;20.288;2022-07-05T09:38:26;1.43;;;0.80;;
13475;SDS011;6810;63.824;20.288;2022-07-05T09:40:55;1.43;;;1.00;;
13475;SDS011;6810;63.824;20.288;2022-07-05T09:43:24;3.50;;;1.10;;
13475;SDS011;6810;63.824;20.288;2022-07-05T09:45:56;1.03;;;0.80;;
13475;SDS011;6810;63.824;20.288;2022-07-05T09:48:31;2.57;;;0.90;;
13475;SDS011;6810;63.824;20.288;2022-07-05T09:53:57;1.50;;;0.90;;
13475;SDS011;6810;63.824;20.288;2022-07-05T09:56:28;0.70;;;0.70;;
13475;SDS011;6810;63.824;20.288;2022-07-05T09:59:13;1.37;;;0.70;;
13475;SDS011;6810;63.824;20.288;2022-07-05T10:01:42;1.53;;;0.87;;
13475;SDS011;6810;63.824;20.288;2022-07-05T10:04:09;2.50;;;0.70;;
13475;SDS011;6810;63.824;20.288;2022-07-05T10:06:37;2.10;;;0.67;;
13475;SDS011;6810;63.824;20.288;2022-07-05T10:09:04;2.43;;;0.70;;
13475;SDS011;6810;63.824;20.288;2022-07-05T10:11:32;2.80;;;0.80;;
13475;SDS011;6810;63.824;20.288;2022-07-05T10:14:02;0.57;;;0.57;;
13475;SDS011;6810;63.824;20.288;2022-07-05T10:16:33;1.17;;;0.60;;
13475;SDS011;6810;63.824;20.288;2022-07-05T10:19:00;2.23;;;0.90;;
13475;SDS011;6810;63.824;20.288;2022-07-05T10:21:27;2.93;;;0.60;;
13475;SDS011;6810;63.824;20.288;2022-07-05T10:23:55;1.60;;;0.47;;
13475;SDS011;6810;63.824;20.288;2022-07-05T10:26:23;1.50;;;0.50;;
13475;SDS011;6810;63.824;20.288;2022-07-05T10:28:52;0.53;;;0.33;;
13475;SDS011;6810;63.824;20.288;2022-07-05T10:31:28;0.53;;;0.50;;
13475;SDS011;6810;63.824;20.288;2022-07-05T10:33:56;2.67;;;0.50;;
13475;SDS011;6810;63.824;20.288;2022-07-05T10:36:27;1.03;;;0.60;;
13475;SDS011;6810;63.824;20.288;2022-07-05T10:38:54;0.43;;;0.43;;
13475;SDS011;6810;63.824;20.288;2022-07-05T10:41:23;1.73;;;0.70;;
13475;SDS011;6810;63.824;20.288;2022-07-05T10:43:55;2.63;;;0.60;;
13475;SDS011;6810;63.824;20.288;2022-07-05T10:46:35;1.10;;;0.77;;
13475;SDS011;6810;63.824;20.288;2022-07-05T10:49:10;2.57;;;0.97;;
13475;SDS011;6810;63.824;20.288;2022-07-05T10:51:42;7.20;;;1.07;;
13475;SDS011;6810;63.824;20.288;2022-07-05T10:54:09;2.27;;;1.03;;
13475;SDS011;6810;63.824;20.288;2022-07-05T10:56:36;1.60;;;0.60;;
13475;SDS011;6810;63.824;20.288;2022-07-05T10:59:05;2.73;;;0.53;;
13475;SDS011;6810;63.824;20.288;2022-07-05T11:01:37;1.33;;;0.47;;
13475;SDS011;6810;63.824;20.288;2022-07-05T11:04:26;2.30;;;0.57;;
13475;SDS011;6810;63.824;20.288;2022-07-05T11:07:13;0.73;;;0.57;;
13475;SDS011;6810;63.824;20.288;2022-07-05T11:10:01;2.20;;;0.57;;
13475;SDS011;6810;63.824;20.288;2022-07-05T11:12:48;3.67;;;0.63;;
13475;SDS011;6810;63.824;20.288;2022-07-05T11:15:35;3.03;;;0.70;;
13475;SDS011;6810;63.824;20.288;2022-07-05T11:18:23;2.17;;;0.53;;
13475;SDS011;6810;63.824;20.288;2022-07-05T11:20:51;1.33;;;0.70;;
13475;SDS011;6810;63.824;20.288;2022-07-05T11:23:47;0.90;;;0.60;;
13475;SDS011;6810;63.824;20.288;2022-07-05T11:26:34;1.03;;;0.50;;
13475;SDS011;6810;63.824;20.288;2022-07-05T11:35:16;1.23;;;0.40;;
13475;SDS011;6810;63.824;20.288;2022-07-05T11:38:06;3.90;;;0.70;;
13475;SDS011;6810;63.824;20.288;2022-07-05T11:41:16;1.13;;;0.60;;
13475;SDS011;6810;63.824;20.288;2022-07-05T11:44:03;3.20;;;0.80;;
13475;SDS011;6810;63.824;20.288;2022-07-05T11:47:12;0.97;;;0.80;;
13475;SDS011;6810;63.824;20.288;2022-07-05T11:50:06;1.63;;;0.70;;
13475;SDS011;6810;63.824;20.288;2022-07-05T11:52:54;3.03;;;0.70;;
13475;SDS011;6810;63.824;20.288;2022-07-05T11:55:41;1.13;;;0.70;;
13475;SDS011;6810;63.824;20.288;2022-07-05T11:58:32;4.83;;;0.60;;
13475;SDS011;6810;63.824;20.288;2022-07-05T12:01:19;3.07;;;0.70;;
13475;SDS011;6810;63.824;20.288;2022-07-05T12:04:07;3.43;;;0.90;;
13475;SDS011;6810;63.824;20.288;2022-07-05T12:06:40;2.70;;;0.60;;
13475;SDS011;6810;63.824;20.288;2022-07-05T12:09:07;1.10;;;0.70;;
13475;SDS011;6810;63.824;20.288;2022-07-05T12:11:35;3.87;;;0.80;;
13475;SDS011;6810;63.824;20.288;2022-07-05T12:14:21;0.63;;;0.60;;
13475;SDS011;6810;63.824;20.288;2022-07-05T12:17:00;2.60;;;0.63;;
13475;SDS011;6810;63.824;20.288;2022-07-05T12:19:59;1.00;;;0.70;;
13475;SDS011;6810;63.824;20.288;2022-07-05T12:22:46;5.40;;;1.03;;
13475;SDS011;6810;63.824;20.288;2022-07-05T12:25:18;4.70;;;0.90;;
13475;SDS011;6810;63.824;20.288;2022-07-05T12:28:08;2.40;;;0.80;;
13475;SDS011;6810;63.824;20.288;2022-07-05T12:30:58;1.50;;;0.90;;
13475;SDS011;6810;63.824;20.288;2022-07-05T12:33:46;0.90;;;0.80;;
13475;SDS011;6810;63.824;20.288;2022-07-05T12:36:33;2.10;;;0.80;;
13475;SDS011;6810;63.824;20.288;2022-07-05T12:39:20;2.93;;;0.90;;
13475;SDS011;6810;63.824;20.288;2022-07-05T12:42:07;2.07;;;0.80;;
13475;SDS011;6810;63.824;20.288;2022-07-05T12:48:01;3.93;;;1.10;;
13475;SDS011;6810;63.824;20.288;2022-07-05T12:50:50;2.20;;;0.93;;
13475;SDS011;6810;63.824;20.288;2022-07-05T12:53:46;1.43;;;0.77;;
13475;SDS011;6810;63.824;20.288;2022-07-05T12:56:32;0.87;;;0.70;;
13475;SDS011;6810;63.824;20.288;2022-07-05T12:59:38;1.73;;;0.73;;
13475;SDS011;6810;63.824;20.288;2022-07-05T13:03:08;3.33;;;0.90;;
13475;SDS011;6810;63.824;20.288;2022-07-05T13:05:36;0.70;;;0.70;;
13475;SDS011;6810;63.824;20.288;2022-07-05T13:08:26;2.93;;;0.80;;
13475;SDS011;6810;63.824;20.288;2022-07-05T13:11:28;2.50;;;0.70;;
13475;SDS011;6810;63.824;20.288;2022-07-05T13:14:16;2.07;;;0.90;;
13475;SDS011;6810;63.824;20.288;2022-07-05T13:17:04;1.20;;;0.73;;
13475;SDS011;6810;63.824;20.288;2022-07-05T13:19:51;3.00;;;0.93;;
13475;SDS011;6810;63.824;20.288;2022-07-05T13:22:39;1.67;;;0.70;;
13475;SDS011;6810;63.824;20.288;2022-07-05T13:25:25;4.00;;;1.00;;
13475;SDS011;6810;63.824;20.288;2022-07-05T13:27:53;2.37;;;0.90;;
13475;SDS011;6810;63.824;20.288;2022-07-05T13:30:20;2.07;;;0.70;;
13475;SDS011;6810;63.824;20.288;2022-07-05T13:33:06;3.17;;;1.27;;
13475;SDS011;6810;63.824;20.288;2022-07-05T13:35:55;1.70;;;0.80;;
13475;SDS011;6810;63.824;20.288;2022-07-05T13:38:42;2.13;;;0.90;;
13475;SDS011;6810;63.824;20.288;2022-07-05T13:41:30;5.13;;;1.20;;
13475;SDS011;6810;63.824;20.288;2022-07-05T13:44:17;1.37;;;0.80;;
13475;SDS011;6810;63.824;20.288;2022-07-05T13:47:06;3.23;;;1.03;;
13475;SDS011;6810;63.824;20.288;2022-07-05T13:49:33;2.17;;;0.70;;
13475;SDS011;6810;63.824;20.288;2022-07-05T13:52:00;4.03;;;0.97;;
13475;SDS011;6810;63.824;20.288;2022-07-05T13:54:28;2.17;;;0.90;;
13475;SDS011;6810;63.824;20.288;2022-07-05T13:56:56;0.97;;;0.80;;
13475;SDS011;6810;63.824;20.288;2022-07-05T13:59:23;2.70;;;1.00;;
13475;SDS011;6810;63.824;20.288;2022-07-05T14:01:50;2.17;;;0.77;;
13475;SDS011;6810;63.824;20.288;2022-07-05T14:04:18;1.90;;;0.90;;
13475;SDS011;6810;63.824;20.288;2022-07-05T14:06:45;1.90;;;0.80;;
13475;SDS011;6810;63.824;20.288;2022-07-05T14:09:13;4.60;;;1.00;;
13475;SDS011;6810;63.824;20.288;2022-07-05T14:11:40;1.67;;;0.70;;
13475;SDS011;6810;63.824;20.288;2022-07-05T14:14:07;2.40;;;1.10;;
13475;SDS011;6810;63.824;20.288;2022-07-05T14:16:34;2.37;;;0.90;;
13475;SDS011;6810;63.824;20.288;2022-07-05T14:19:22;2.00;;;0.80;;
13475;SDS011;6810;63.824;20.288;2022-07-05T14:22:10;4.63;;;1.17;;
13475;SDS011;6810;63.824;20.288;2022-07-05T14:24:57;1.87;;;0.90;;
13475;SDS011;6810;63.824;20.288;2022-07-05T14:27:44;4.97;;;1.00;;
13475;SDS011;6810;63.824;20.288;2022-07-05T14:30:31;2.20;;;0.70;;
13475;SDS011;6810;63.824;20.288;2022-07-05T14:33:18;1.30;;;0.70;;
13475;SDS011;6810;63.824;20.288;2022-07-05T14:36:05;1.53;;;0.60;;
13475;SDS011;6810;63.824;20.288;2022-07-05T14:38:53;1.77;;;0.70;;
13475;SDS011;6810;63.824;20.288;2022-07-05T14:41:45;0.47;;;0.40;;
13475;SDS011;6810;63.824;20.288;2022-07-05T14:44:33;0.90;;;0.53;;
13475;SDS011;6810;63.824;20.288;2022-07-05T14:47:20;3.27;;;0.60;;
13475;SDS011;6810;63.824;20.288;2022-07-05T14:50:07;2.10;;;0.90;;
13475;SDS011;6810;63.824;20.288;2022-07-05T14:52:54;1.33;;;0.70;;
13475;SDS011;6810;63.824;20.288;2022-07-05T14:55:42;0.60;;;0.43;;
13475;SDS011;6810;63.824;20.288;2022-07-05T14:58:29;0.97;;;0.40;;
13475;SDS011;6810;63.824;20.288;2022-07-05T15:01:16;1.97;;;0.30;;
13475;SDS011;6810;63.824;20.288;2022-07-05T15:04:06;0.80;;;0.60;;
13475;SDS011;6810;63.824;20.288;2022-07-05T15:06:53;0.60;;;0.53;;
13475;SDS011;6810;63.824;20.288;2022-07-05T15:09:40;2.10;;;0.63;;
13475;SDS011;6810;63.824;20.288;2022-07-05T15:12:27;1.00;;;0.60;;
13475;SDS011;6810;63.824;20.288;2022-07-05T15:15:14;2.03;;;0.60;;
13475;SDS011;6810;63.824;20.288;2022-07-05T15:18:01;1.07;;;0.60;;
13475;SDS011;6810;63.824;20.288;2022-07-05T15:20:49;1.07;;;0.60;;
13475;SDS011;6810;63.824;20.288;2022-07-05T15:23:36;0.50;;;0.50;;
13475;SDS011;6810;63.824;20.288;2022-07-05T15:26:42;5.57;;;0.83;;
13475;SDS011;6810;63.824;20.288;2022-07-05T15:29:44;0.60;;;0.60;;
13475;SDS011;6810;63.824;20.288;2022-07-05T15:32:31;2.40;;;0.60;;
13475;SDS011;6810;63.824;20.288;2022-07-05T15:35:26;1.07;;;0.53;;
13475;SDS011;6810;63.824;20.288;2022-07-05T15:38:13;0.67;;;0.50;;
13475;SDS011;6810;63.824;20.288;2022-07-05T15:41:00;0.60;;;0.30;;
13475;SDS011;6810;63.824;20.288;2022-07-05T15:43:47;0.30;;;0.30;;
13475;SDS011;6810;63.824;20.288;2022-07-05T15:46:34;1.10;;;0.40;;
13475;SDS011;6810;63.824;20.288;2022-07-05T15:49:20;1.23;;;0.40;;
13475;SDS011;6810;63.824;20.288;2022-07-05T15:52:07;0.43;;;0.43;;
13475;SDS011;6810;63.824;20.288;2022-07-05T15:54:54;0.90;;;0.70;;
13475;SDS011;6810;63.824;20.288;2022-07-05T15:57:41;0.40;;;0.40;;
13475;SDS011;6810;63.824;20.288;2022-07-05T16:00:28;0.63;;;0.30;;
13475;SDS011;6810;63.824;20.288;2022-07-05T16:03:15;0.30;;;0.30;;
13475;SDS011;6810;63.824;20.288;2022-07-05T16:06:03;0.73;;;0.40;;
13475;SDS011;6810;63.824;20.288;2022-07-05T16:08:50;0.40;;;0.40;;
13475;SDS011;6810;63.824;20.288;2022-07-05T16:11:37;0.33;;;0.33;;
13475;SDS011;6810;63.824;20.288;2022-07-05T16:14:25;0.40;;;0.40;;
13475;SDS011;6810;63.824;20.288;2022-07-05T16:17:13;0.60;;;0.60;;
13475;SDS011;6810;63.824;20.288;2022-07-05T16:20:00;0.40;;;0.30;;
13475;SDS011;6810;63.824;20.288;2022-07-05T16:22:47;0.97;;;0.43;;
13475;SDS011;6810;63.824;20.288;2022-07-05T16:25:34;0.33;;;0.33;;
13475;SDS011;6810;63.824;20.288;2022-07-05T16:28:22;0.50;;;0.50;;
13475;SDS011;6810;63.824;20.288;2022-07-05T16:31:10;0.30;;;0.30;;
13475;SDS011;6810;63.824;20.288;2022-07-05T16:33:58;0.60;;;0.40;;
13475;SDS011;6810;63.824;20.288;2022-07-05T16:36:45;0.60;;;0.40;;
13475;SDS011;6810;63.824;20.288;2022-07-05T16:39:32;0.40;;;0.40;;
13475;SDS011;6810;63.824;20.288;2022-07-05T16:42:19;0.77;;;0.30;;
13475;SDS011;6810;63.824;20.288;2022-07-05T16:45:06;0.20;;;0.20;;